Szeged, Hungary

2:42 AM CEST on April 25, 2015 (GMT +0200)
Backi Vinogradi | | Change Station
CLOSE
Current Station
Personal Weather Station
Location: Backi Vinogradi, VOJVODINA
Elevation: 318 ft
Nearby Weather Stations

Elev 318 ft 46.11 °N, 19.86 °E | Updated 9 minutes ago

Clear
Clear
50.8 °F
Feels Like 50.8 °F
N
1.0
Wind Variable Wind from WSW
Gusts 4.0 mph

Today
High -- | Low -- °F
--% Chance of Precip.
Yesterday
High -- | Low -- °F
Precip. -- in
5:36 AM 7:39 PM
Waxing Crescent, 40% visible
Pressure 30.01 in
Visibility -9999.0 miles
Clouds
Dew Point 45 °F
Humidity 81%
Rainfall 0.00 in
Snow Depth Not available.
UV Not available.
Pollen Not available.
Air Quality Not available.
Flu Activity Not available.
METAR LHKE 250015Z 00000KT CAVOK 09/06 Q1016 NOSIG RMK BLU

More Conditions Fewer Conditions

Pressure 30.01 in
Visibility -9999.0 miles
Clouds
Dew Point 45 °F
Humidity 81%
Rainfall 0.00 in
Snow Depth Not available.
UV Not available.
Pollen Not available.
Air Quality Not available.
Flu Activity Not available.
METAR LHKE 250015Z 00000KT CAVOK 09/06 Q1016 NOSIG RMK BLU

More Conditions Fewer Conditions

10-Day Weather Forecast

Almanac

Astronomy

Apr. 25, 2015 Rise Set
Actual Time
Civil Twilight
Nautical Twilight
Astronomical Twilight
Moon
Length of Visible Light
Length of Day
Tomorrow will be .
, % of the Moon is Illuminated

Today's Extremes

Country Highs Country Lows

Community

WunderPhotos

Upload Photos

1,816,526 photos uploaded!

WunderBlogs® & News

Nearby

Air Quality

  Air Quality AQ Index Pollutant
Not available.

Snow Depth

Station Depth Elevation

Earthquake Activity

City Distance Mag. Time & Date
Minimum magnitude displayed is 2.5.

Coastal Water Temperatures

Place Temperature

Stations

Nearby Weather Stations

Station Location Temp. Windchill Dew Point Humidity Wind Precip. Elev Updated Type